Volney, Iowa
Current Conditions -  °F | °C
As of 7:15 PM on Tuesday 21 Oct 2014 (Local Time) from KPDC Reporting Station
Clear Clear  
Wind Chill: 46°   Ceiling: Unl
Heat Index: 48°   Visibility: 10mi
Dew Point: 36°   Wind: 6mph
Humidity: 62%   Direction: 90°E
Pressure: 30.22"   Gusts: NA
Location:  43.0888°N, 91.4288°W
Report Text: KPDC 220015Z AUTO 09005KT 10SM CLR 09/02 A3022 RMK AO2 T00900021
Loading
Personal Weather Stations






























Interactive Weather Map
Tropical Storm Tracking
New forecast layout! Learn more

10-Day Weather Forecast

Advertisements
Track Severe Weather on mobile